Time;durP1;ratioP1;P1;durP2;ratioP2;P2;SDS_P1;SDS_P2;PMS_P1;PMS_P2;Temp;Humidity;BMP_temperature;BMP_pressure;BME280_temperature;BME280_humidity;BME280_pressure;Samples;Min_cycle;Max_cycle;Signal;HPM_P1;HPM_P2
2023/12/13 00:00:11;;;;;;;5.40;5.00;;;;;;;;;;6096806;23;20018;-93
2023/12/13 00:02:39;;;;;;;5.55;4.80;;;;;;;;;;6096678;23;20022;-93
2023/12/13 00:05:06;;;;;;;5.03;4.63;;;;;;;;;;6097526;23;20618;-94
2023/12/13 00:07:34;;;;;;;5.00;4.60;;;;;;;;;;6097923;23;20022;-93
2023/12/13 00:10:01;;;;;;;5.47;5.07;;;;;;;;;;6097971;23;20443;-93
2023/12/13 00:12:28;;;;;;;6.15;4.55;;;;;;;;;;6098291;23;20026;-92
2023/12/13 00:14:56;;;;;;;4.93;4.50;;;;;;;;;;6097819;23;20076;-92
2023/12/13 00:17:23;;;;;;;4.78;4.30;;;;;;;;;;6097200;23;20071;-93
2023/12/13 00:19:50;;;;;;;4.35;4.00;;;;;;;;;;6097482;23;20037;-93
2023/12/13 00:22:18;;;;;;;4.93;4.43;;;;;;;;;;6098190;23;20022;-93
2023/12/13 00:24:45;;;;;;;4.07;3.78;;;;;;;;;;6097651;23;20014;-92
2023/12/13 00:27:12;;;;;;;5.10;4.47;;;;;;;;;;6097483;23;20032;-93
2023/12/13 00:29:39;;;;;;;4.68;4.38;;;;;;;;;;6098354;23;20026;-94
2023/12/13 00:32:07;;;;;;;5.72;5.22;;;;;;;;;;6097929;23;20450;-93
2023/12/13 00:34:34;;;;;;;5.50;4.95;;;;;;;;;;6097824;23;20463;-93
2023/12/13 00:37:02;;;;;;;5.18;4.30;;;;;;;;;;6097801;23;20101;-93
2023/12/13 00:39:29;;;;;;;5.05;4.55;;;;;;;;;;6099128;23;20451;-94
2023/12/13 00:41:57;;;;;;;5.50;4.97;;;;;;;;;;6119315;23;20010;-92
2023/12/13 00:44:24;;;;;;;4.63;4.28;;;;;;;;;;6117868;23;20018;-94
2023/12/13 00:46:51;;;;;;;4.90;4.50;;;;;;;;;;6097135;23;20076;-93
2023/12/13 00:49:20;;;;;;;5.95;5.30;;;;;;;;;;6098252;23;20132;-93
2023/12/13 00:51:47;;;;;;;7.00;5.63;;;;;;;;;;6098299;23;20036;-94
2023/12/13 00:54:15;;;;;;;5.43;4.93;;;;;;;;;;6074139;23;20014;-93
2023/12/13 00:56:42;;;;;;;5.45;4.95;;;;;;;;;;6097580;23;20018;-93
2023/12/13 00:59:10;;;;;;;5.20;4.80;;;;;;;;;;6097486;23;20524;-93
2023/12/13 01:01:44;;;;;;;5.47;4.97;;;;;;;;;;6097514;23;20029;-93
2023/12/13 01:04:12;;;;;;;8.75;5.75;;;;;;;;;;6097932;23;20024;-94
2023/12/13 01:06:39;;;;;;;6.30;5.07;;;;;;;;;;6098916;23;20018;-93
2023/12/13 01:09:08;;;;;;;6.07;5.47;;;;;;;;;;6098445;23;20029;-94
2023/12/13 01:11:35;;;;;;;9.23;5.68;;;;;;;;;;6097383;23;20022;-94
2023/12/13 01:14:07;;;;;;;5.93;4.45;;;;;;;;;;6098189;23;20524;-94
2023/12/13 01:16:34;;;;;;;5.40;4.85;;;;;;;;;;6097593;23;20439;-94
2023/12/13 01:19:02;;;;;;;8.20;5.35;;;;;;;;;;6097664;23;20017;-94
2023/12/13 01:21:30;;;;;;;8.70;6.38;;;;;;;;;;6099999;23;20029;-94
2023/12/13 01:23:58;;;;;;;7.47;5.60;;;;;;;;;;6098048;23;20036;-94
2023/12/13 01:26:25;;;;;;;6.43;5.43;;;;;;;;;;6097590;23;20045;-94
2023/12/13 01:28:53;;;;;;;6.22;5.63;;;;;;;;;;6098317;23;20026;-94
2023/12/13 01:31:20;;;;;;;6.57;5.65;;;;;;;;;;6098087;23;20462;-94
2023/12/13 01:33:48;;;;;;;6.28;5.72;;;;;;;;;;6098060;23;20032;-94
2023/12/13 01:36:15;;;;;;;8.93;6.28;;;;;;;;;;6097529;23;20017;-93
2023/12/13 01:38:42;;;;;;;12.18;7.68;;;;;;;;;;6098670;23;20044;-93
2023/12/13 01:41:10;;;;;;;7.13;6.43;;;;;;;;;;6097832;23;20026;-94
2023/12/13 01:43:41;;;;;;;10.38;6.85;;;;;;;;;;6098464;23;20308;-94
2023/12/13 01:46:09;;;;;;;7.53;5.93;;;;;;;;;;6097532;23;20018;-94
2023/12/13 01:48:37;;;;;;;8.30;6.30;;;;;;;;;;6097799;23;20042;-93
2023/12/13 01:51:04;;;;;;;5.70;5.07;;;;;;;;;;6097890;23;20021;-94
2023/12/13 01:53:33;;;;;;;6.57;5.53;;;;;;;;;;6097694;23;20033;-94
2023/12/13 01:56:00;;;;;;;6.00;5.32;;;;;;;;;;6099722;23;20056;-94
2023/12/13 01:58:28;;;;;;;5.57;5.05;;;;;;;;;;6123496;23;20006;-92
2023/12/13 02:00:56;;;;;;;5.97;4.90;;;;;;;;;;6112499;23;20049;-94
2023/12/13 02:03:23;;;;;;;5.78;4.82;;;;;;;;;;6097929;23;20382;-94
2023/12/13 02:05:54;;;;;;;7.88;4.68;;;;;;;;;;6098082;23;20075;-94
2023/12/13 02:08:22;;;;;;;4.57;4.18;;;;;;;;;;6097966;23;20401;-94
2023/12/13 02:10:50;;;;;;;4.50;4.10;;;;;;;;;;6097535;23;20076;-93
2023/12/13 02:13:17;;;;;;;4.70;4.18;;;;;;;;;;6098339;23;20018;-93
2023/12/13 02:15:45;;;;;;;4.43;4.10;;;;;;;;;;6097832;23;20018;-93
2023/12/13 02:18:16;;;;;;;6.68;4.20;;;;;;;;;;6099746;23;20071;-93
2023/12/13 02:20:44;;;;;;;3.63;3.15;;;;;;;;;;6100470;23;20451;-94
2023/12/13 02:23:11;;;;;;;4.85;3.33;;;;;;;;;;6097978;23;20022;-94
2023/12/13 02:25:57;;;;;;;5.50;3.80;;;;;;;;;;6097514;23;20075;-94
2023/12/13 02:28:25;;;;;;;5.80;3.70;;;;;;;;;;6097472;23;20111;-93
2023/12/13 02:30:57;;;;;;;3.65;3.35;;;;;;;;;;6097933;23;20088;-93
2023/12/13 02:33:25;;;;;;;3.97;3.58;;;;;;;;;;6098230;23;20081;-93
2023/12/13 02:35:58;;;;;;;3.35;3.10;;;;;;;;;;6097471;23;20020;-93
2023/12/13 02:38:25;;;;;;;3.58;3.28;;;;;;;;;;6097570;23;20029;-94
2023/12/13 02:40:53;;;;;;;7.60;4.82;;;;;;;;;;6102034;23;20018;-94
2023/12/13 02:43:20;;;;;;;5.50;4.95;;;;;;;;;;6097394;23;20022;-94
2023/12/13 02:45:48;;;;;;;8.55;5.40;;;;;;;;;;6097566;23;20022;-93
2023/12/13 02:48:15;;;;;;;12.10;5.95;;;;;;;;;;6097189;23;20025;-93
2023/12/13 02:50:43;;;;;;;6.65;5.80;;;;;;;;;;6097812;23;20018;-94
2023/12/13 02:53:10;;;;;;;8.02;5.70;;;;;;;;;;6097918;23;20022;-94
2023/12/13 02:55:37;;;;;;;9.10;5.90;;;;;;;;;;6096973;23;20041;-94
2023/12/13 02:58:05;;;;;;;5.85;5.25;;;;;;;;;;6097515;23;20498;-94
2023/12/13 03:00:32;;;;;;;6.43;5.80;;;;;;;;;;6097435;23;20068;-93
2023/12/13 03:03:00;;;;;;;8.95;6.20;;;;;;;;;;6098003;23;20018;-94
2023/12/13 03:05:27;;;;;;;6.97;5.47;;;;;;;;;;6097588;23;20046;-93
2023/12/13 03:07:54;;;;;;;7.90;6.05;;;;;;;;;;6098342;23;20102;-95
2023/12/13 03:10:22;;;;;;;5.18;4.68;;;;;;;;;;6098374;23;20393;-94
2023/12/13 03:12:49;;;;;;;5.18;4.68;;;;;;;;;;6110822;23;20065;-93
2023/12/13 03:15:16;;;;;;;10.00;5.95;;;;;;;;;;6124844;23;20040;-92
2023/12/13 03:17:44;;;;;;;5.70;5.00;;;;;;;;;;6098721;23;20079;-93
2023/12/13 03:20:11;;;;;;;5.88;5.30;;;;;;;;;;6097794;23;20064;-94
2023/12/13 03:22:39;;;;;;;8.63;5.32;;;;;;;;;;6097475;23;20025;-94
2023/12/13 03:25:06;;;;;;;5.90;5.28;;;;;;;;;;6096871;23;20018;-94
2023/12/13 03:27:33;;;;;;;9.52;5.35;;;;;;;;;;6096829;23;20079;-94
2023/12/13 03:30:01;;;;;;;8.32;5.95;;;;;;;;;;6098585;23;20067;-94
2023/12/13 03:32:28;;;;;;;5.25;4.32;;;;;;;;;;6097245;23;20084;-94
2023/12/13 03:34:56;;;;;;;5.90;4.25;;;;;;;;;;6097751;23;20024;-94
2023/12/13 03:37:23;;;;;;;5.97;3.97;;;;;;;;;;6097120;23;20025;-94
2023/12/13 03:39:50;;;;;;;4.65;4.25;;;;;;;;;;6097176;23;20028;-93
2023/12/13 03:42:17;;;;;;;6.03;4.75;;;;;;;;;;6098037;23;20072;-94
2023/12/13 03:44:45;;;;;;;8.10;5.30;;;;;;;;;;6097850;23;20328;-94
2023/12/13 03:47:12;;;;;;;6.57;4.10;;;;;;;;;;6097403;23;20014;-94
2023/12/13 03:49:39;;;;;;;4.40;3.63;;;;;;;;;;6098986;23;20089;-93
2023/12/13 03:52:07;;;;;;;6.38;4.65;;;;;;;;;;6097867;23;20018;-94
2023/12/13 03:54:34;;;;;;;5.15;4.55;;;;;;;;;;6096684;23;20022;-94
2023/12/13 03:57:02;;;;;;;5.15;4.65;;;;;;;;;;6096842;23;20049;-94
2023/12/13 03:59:29;;;;;;;4.05;3.65;;;;;;;;;;6097661;23;20075;-94
2023/12/13 04:01:56;;;;;;;3.63;3.33;;;;;;;;;;6097112;23;20022;-95
2023/12/13 04:04:24;;;;;;;105.57;6.10;;;;;;;;;;6097196;23;20018;-94
2023/12/13 04:06:51;;;;;;;3.40;3.10;;;;;;;;;;6097000;23;20091;-94
2023/12/13 04:09:18;;;;;;;5.82;3.60;;;;;;;;;;6097572;23;20091;-94
2023/12/13 04:11:46;;;;;;;3.55;3.25;;;;;;;;;;6097055;23;20463;-94
2023/12/13 04:14:13;;;;;;;9.40;4.13;;;;;;;;;;6098060;23;20025;-94
2023/12/13 04:16:40;;;;;;;5.75;4.03;;;;;;;;;;6099888;23;20025;-94
2023/12/13 04:19:10;;;;;;;20.77;3.83;;;;;;;;;;6099898;23;20018;-93
2023/12/13 04:21:39;;;;;;;23.27;4.10;;;;;;;;;;6097960;23;20022;-93
2023/12/13 04:24:06;;;;;;;5.38;3.75;;;;;;;;;;6096731;23;20025;-93
2023/12/13 04:26:33;;;;;;;6.13;3.70;;;;;;;;;;6097251;23;20025;-93
2023/12/13 04:29:01;;;;;;;4.07;3.50;;;;;;;;;;6118490;23;20029;-91
2023/12/13 04:31:28;;;;;;;3.97;3.58;;;;;;;;;;6116983;23;20014;-93
2023/12/13 04:33:56;;;;;;;5.05;3.97;;;;;;;;;;6098421;23;20029;-93
2023/12/13 04:36:23;;;;;;;7.03;3.45;;;;;;;;;;6099555;23;20022;-93
2023/12/13 04:38:50;;;;;;;5.00;3.97;;;;;;;;;;6099660;23;20018;-93
2023/12/13 04:41:17;;;;;;;6.53;5.85;;;;;;;;;;6097125;23;20026;-94
2023/12/13 04:43:45;;;;;;;12.73;6.95;;;;;;;;;;6098286;23;20447;-93
2023/12/13 04:46:12;;;;;;;7.75;5.88;;;;;;;;;;6096837;23;20018;-93
2023/12/13 04:48:39;;;;;;;25.42;5.55;;;;;;;;;;6097289;23;20026;-93
2023/12/13 04:51:07;;;;;;;25.40;6.28;;;;;;;;;;6100879;23;20097;-93
2023/12/13 04:53:35;;;;;;;23.55;6.82;;;;;;;;;;6098836;23;20088;-94
2023/12/13 04:56:02;;;;;;;7.70;5.80;;;;;;;;;;6097854;23;20018;-93
2023/12/13 04:58:29;;;;;;;13.00;6.57;;;;;;;;;;6098202;23;20022;-93
2023/12/13 05:00:57;;;;;;;11.57;5.35;;;;;;;;;;6098082;23;20030;-93
2023/12/13 05:03:26;;;;;;;34.67;7.50;;;;;;;;;;6097908;23;20033;-93
2023/12/13 05:05:53;;;;;;;14.57;8.50;;;;;;;;;;6098358;23;20462;-93
2023/12/13 05:08:21;;;;;;;11.80;8.82;;;;;;;;;;6098251;23;20335;-94
2023/12/13 05:10:48;;;;;;;9.50;7.60;;;;;;;;;;6097997;23;20025;-93
2023/12/13 05:13:15;;;;;;;19.13;7.75;;;;;;;;;;6098769;23;20033;-93
2023/12/13 05:15:43;;;;;;;4.10;3.80;;;;;;;;;;6097792;23;20014;-94
2023/12/13 05:18:10;;;;;;;13.88;8.98;;;;;;;;;;6098367;23;20026;-94
2023/12/13 05:20:37;;;;;;;12.07;5.90;;;;;;;;;;6098893;23;20386;-94
2023/12/13 05:23:05;;;;;;;10.23;6.97;;;;;;;;;;6098548;23;20081;-94
2023/12/13 05:25:33;;;;;;;24.30;8.20;;;;;;;;;;6098423;23;20018;-94
2023/12/13 05:28:00;;;;;;;16.48;8.68;;;;;;;;;;6092898;23;20101;-94
2023/12/13 05:30:28;;;;;;;11.95;9.18;;;;;;;;;;6093593;23;20033;-93
2023/12/13 05:32:56;;;;;;;11.43;7.93;;;;;;;;;;6093280;23;20022;-93
2023/12/13 05:35:23;;;;;;;15.23;9.20;;;;;;;;;;6092993;23;20019;-94
2023/12/13 05:37:51;;;;;;;14.52;9.55;;;;;;;;;;6093656;23;20030;-94
2023/12/13 05:40:19;;;;;;;12.35;7.72;;;;;;;;;;6093373;23;20022;-94
2023/12/13 05:42:46;;;;;;;19.15;9.10;;;;;;;;;;6097448;22;20022;-95
2023/12/13 05:45:14;;;;;;;30.35;19.48;;;;;;;;;;6120071;22;20007;-93
2023/12/13 05:47:41;;;;;;;40.95;25.40;;;;;;;;;;6101501;22;20371;-94
2023/12/13 05:50:08;;;;;;;32.25;21.58;;;;;;;;;;6094000;23;20101;-95
2023/12/13 05:52:39;;;;;;;27.05;18.75;;;;;;;;;;6093382;23;20019;-94
2023/12/13 05:55:07;;;;;;;20.48;13.93;;;;;;;;;;6092618;23;20026;-93
2023/12/13 05:57:34;;;;;;;16.92;12.32;;;;;;;;;;6093452;23;20121;-93
2023/12/13 06:00:06;;;;;;;12.23;8.90;;;;;;;;;;6093041;23;20022;-94
2023/12/13 06:02:35;;;;;;;9.43;8.27;;;;;;;;;;6092732;23;20030;-94
2023/12/13 06:05:06;;;;;;;9.98;7.55;;;;;;;;;;6093060;23;20084;-93
2023/12/13 06:07:33;;;;;;;11.05;7.18;;;;;;;;;;6093345;23;20027;-93
2023/12/13 06:10:02;;;;;;;16.42;11.38;;;;;;;;;;6093946;23;20041;-93
2023/12/13 06:12:29;;;;;;;15.82;9.98;;;;;;;;;;6092733;23;20463;-94
2023/12/13 06:14:58;;;;;;;26.70;10.68;;;;;;;;;;6093461;23;20022;-93
2023/12/13 06:17:25;;;;;;;10.23;7.72;;;;;;;;;;6093975;23;20023;-94
2023/12/13 06:19:52;;;;;;;15.82;7.57;;;;;;;;;;6092912;23;20030;-94
2023/12/13 06:22:20;;;;;;;10.30;8.10;;;;;;;;;;6092838;23;20020;-93
2023/12/13 06:24:48;;;;;;;13.77;9.05;;;;;;;;;;6092883;23;20028;-93
2023/12/13 06:27:15;;;;;;;14.02;7.00;;;;;;;;;;6097847;23;20077;-94
2023/12/13 06:29:42;;;;;;;8.90;6.00;;;;;;;;;;6098160;23;20018;-93
2023/12/13 06:32:10;;;;;;;7.38;5.68;;;;;;;;;;6098417;23;20068;-94
2023/12/13 06:34:37;;;;;;;12.02;6.22;;;;;;;;;;6098367;23;20022;-94
2023/12/13 06:37:06;;;;;;;8.38;5.70;;;;;;;;;;6097881;23;20018;-91
2023/12/13 06:39:33;;;;;;;9.18;5.93;;;;;;;;;;6098389;23;20022;-93
2023/12/13 06:42:01;;;;;;;7.20;5.43;;;;;;;;;;6097690;23;20091;-94
2023/12/13 06:44:28;;;;;;;9.60;5.47;;;;;;;;;;6098313;23;20026;-94
2023/12/13 06:46:56;;;;;;;8.18;6.82;;;;;;;;;;6097792;23;20052;-93
2023/12/13 06:49:28;;;;;;;26.27;15.88;;;;;;;;;;6123166;23;20397;-93
2023/12/13 06:51:56;;;;;;;16.55;10.40;;;;;;;;;;6098367;23;20018;-93
2023/12/13 06:54:23;;;;;;;68.80;44.30;;;;;;;;;;6098519;23;20026;-94
2023/12/13 06:56:50;;;;;;;78.90;46.85;;;;;;;;;;6124059;23;20022;-94
2023/12/13 06:59:18;;;;;;;39.38;22.60;;;;;;;;;;6141531;23;20033;-93
2023/12/13 07:01:45;;;;;;;27.15;15.70;;;;;;;;;;6118339;23;20030;-93
2023/12/13 07:04:13;;;;;;;15.98;10.60;;;;;;;;;;6123334;23;20033;-94
2023/12/13 07:06:41;;;;;;;9.93;7.70;;;;;;;;;;6099194;23;20033;-94
2023/12/13 07:09:10;;;;;;;10.73;7.45;;;;;;;;;;6098159;23;20037;-94
2023/12/13 07:11:38;;;;;;;15.18;9.18;;;;;;;;;;6097952;23;20022;-92
2023/12/13 07:14:05;;;;;;;15.50;8.43;;;;;;;;;;6097896;23;20022;-95
2023/12/13 07:16:33;;;;;;;10.65;6.15;;;;;;;;;;6097378;23;20042;-93
2023/12/13 07:19:01;;;;;;;13.30;7.97;;;;;;;;;;6098078;23;20080;-94
2023/12/13 07:21:29;;;;;;;16.92;8.10;;;;;;;;;;6097946;23;20057;-93
2023/12/13 07:23:56;;;;;;;9.27;6.57;;;;;;;;;;6097820;23;20018;-93
2023/12/13 07:26:23;;;;;;;7.97;6.20;;;;;;;;;;6097613;23;20026;-94
2023/12/13 07:28:55;;;;;;;10.85;6.63;;;;;;;;;;6123266;23;20034;-93
2023/12/13 07:31:23;;;;;;;8.65;5.97;;;;;;;;;;6098046;23;20326;-94
2023/12/13 07:33:50;;;;;;;7.53;4.78;;;;;;;;;;6097623;23;20057;-94
2023/12/13 07:36:17;;;;;;;8.43;5.72;;;;;;;;;;6097536;23;20025;-93
2023/12/13 07:38:45;;;;;;;9.30;5.68;;;;;;;;;;6096862;23;20029;-93
2023/12/13 07:41:13;;;;;;;8.02;5.88;;;;;;;;;;6097448;23;20072;-94
2023/12/13 07:43:40;;;;;;;15.23;9.25;;;;;;;;;;6098166;23;20057;-93
2023/12/13 07:46:08;;;;;;;29.70;13.63;;;;;;;;;;6124316;23;20022;-96
2023/12/13 07:48:36;;;;;;;21.30;12.85;;;;;;;;;;6097930;23;20029;-93
2023/12/13 07:51:05;;;;;;;28.52;15.70;;;;;;;;;;6098833;23;20036;-95
2023/12/13 07:53:32;;;;;;;33.75;20.23;;;;;;;;;;6098079;23;20041;-93
2023/12/13 07:56:00;;;;;;;49.47;27.70;;;;;;;;;;6097296;23;20030;-96
2023/12/13 07:58:27;;;;;;;48.95;27.70;;;;;;;;;;6097424;23;20018;-93
2023/12/13 08:00:55;;;;;;;35.55;21.05;;;;;;;;;;6098051;23;20030;-94
2023/12/13 08:03:22;;;;;;;21.25;15.30;;;;;;;;;;6097759;23;20025;-92
2023/12/13 08:05:50;;;;;;;16.30;10.80;;;;;;;;;;6095980;23;20072;-94
2023/12/13 08:08:17;;;;;;;12.52;9.20;;;;;;;;;;6097566;23;20077;-93
2023/12/13 08:10:46;;;;;;;16.52;8.13;;;;;;;;;;6097875;23;20049;-94
2023/12/13 08:13:14;;;;;;;14.13;8.45;;;;;;;;;;6097894;23;20466;-94
2023/12/13 08:15:42;;;;;;;9.90;8.05;;;;;;;;;;6146556;23;20036;-94
2023/12/13 08:18:09;;;;;;;13.20;7.93;;;;;;;;;;6133164;23;20434;-94
2023/12/13 08:20:36;;;;;;;12.43;7.57;;;;;;;;;;6097649;23;20022;-94
2023/12/13 08:23:04;;;;;;;10.90;7.40;;;;;;;;;;6097754;23;20037;-94
2023/12/13 08:25:31;;;;;;;11.73;7.28;;;;;;;;;;6097752;23;20014;-93
2023/12/13 08:27:59;;;;;;;12.48;7.63;;;;;;;;;;6098066;23;20069;-96
2023/12/13 08:30:26;;;;;;;11.60;7.70;;;;;;;;;;6099058;23;20080;-93
2023/12/13 08:32:53;;;;;;;12.48;8.45;;;;;;;;;;6098723;23;20022;-94
2023/12/13 08:35:21;;;;;;;13.80;8.30;;;;;;;;;;6098119;23;20089;-94
2023/12/13 08:37:48;;;;;;;15.15;8.15;;;;;;;;;;6097963;23;20172;-93
2023/12/13 08:40:16;;;;;;;11.45;7.50;;;;;;;;;;6098982;23;20022;-96
2023/12/13 08:42:43;;;;;;;9.43;7.57;;;;;;;;;;6098968;23;20343;-96
2023/12/13 08:45:12;;;;;;;13.30;7.22;;;;;;;;;;6098330;23;20476;-96
2023/12/13 08:47:40;;;;;;;14.60;11.10;;;;;;;;;;6124130;23;20389;-96
2023/12/13 08:50:07;;;;;;;24.55;13.48;;;;;;;;;;6099420;23;20030;-95
2023/12/13 08:52:35;;;;;;;15.30;10.75;;;;;;;;;;6098610;23;20029;-96
2023/12/13 08:55:02;;;;;;;24.75;14.93;;;;;;;;;;6100037;23;20447;-96
2023/12/13 08:57:29;;;;;;;18.65;11.43;;;;;;;;;;6098990;23;20018;-96
2023/12/13 08:59:58;;;;;;;16.30;12.02;;;;;;;;;;6099968;23;20092;-96
2023/12/13 09:02:36;;;;;;;14.10;9.55;;;;;;;;;;6101483;23;20046;-96
2023/12/13 09:05:05;;;;;;;15.57;10.20;;;;;;;;;;6099751;23;20022;-96
2023/12/13 09:07:32;;;;;;;14.93;10.32;;;;;;;;;;6125187;23;20055;-96
2023/12/13 09:10:00;;;;;;;14.82;8.65;;;;;;;;;;6102223;23;20033;-96
2023/12/13 09:12:28;;;;;;;13.40;7.82;;;;;;;;;;6099687;23;20024;-96
2023/12/13 09:14:56;;;;;;;11.48;7.25;;;;;;;;;;6124544;23;20026;-96
2023/12/13 09:17:26;;;;;;;10.02;6.60;;;;;;;;;;6099974;23;20018;-96
2023/12/13 09:19:53;;;;;;;10.73;6.55;;;;;;;;;;6125222;23;20354;-96
2023/12/13 09:22:21;;;;;;;13.27;7.22;;;;;;;;;;6125259;23;20102;-96
2023/12/13 09:24:49;;;;;;;10.60;7.72;;;;;;;;;;6125896;23;20026;-96
2023/12/13 09:27:16;;;;;;;7.40;5.40;;;;;;;;;;6102225;23;20029;-96
2023/12/13 09:29:44;;;;;;;8.45;6.18;;;;;;;;;;6139045;23;20044;-94
2023/12/13 09:32:12;;;;;;;6.38;5.45;;;;;;;;;;6110230;23;20026;-96
2023/12/13 09:34:41;;;;;;;8.98;6.60;;;;;;;;;;6100023;23;20030;-96
2023/12/13 09:37:08;;;;;;;6.75;6.05;;;;;;;;;;6099363;23;20018;-96
2023/12/13 09:39:36;;;;;;;10.70;5.63;;;;;;;;;;6098969;23;20022;-95
2023/12/13 09:42:04;;;;;;;12.07;6.75;;;;;;;;;;6099516;23;20014;-96
2023/12/13 09:44:33;;;;;;;11.88;8.57;;;;;;;;;;6225657;23;20522;-96
2023/12/13 09:47:02;;;;;;;10.77;7.45;;;;;;;;;;6098688;23;20026;-94
2023/12/13 09:49:30;;;;;;;10.52;7.18;;;;;;;;;;6123851;23;20026;-96
2023/12/13 09:52:06;;;;;;;9.13;7.18;;;;;;;;;;6100974;23;20113;-94
2023/12/13 09:54:35;;;;;;;15.45;9.02;;;;;;;;;;6124714;23;20026;-96
2023/12/13 09:57:05;;;;;;;9.23;6.10;;;;;;;;;;6124135;23;20018;-96
2023/12/13 09:59:33;;;;;;;7.43;6.13;;;;;;;;;;6124376;23;20029;-96
2023/12/13 10:02:00;;;;;;;9.52;5.13;;;;;;;;;;6100408;23;20052;-94
2023/12/13 10:04:28;;;;;;;7.13;5.18;;;;;;;;;;6099404;23;20106;-96
2023/12/13 10:06:56;;;;;;;5.38;4.70;;;;;;;;;;6099140;23;20534;-96
2023/12/13 10:09:31;;;;;;;15.10;9.10;;;;;;;;;;6099326;23;20072;-96
2023/12/13 10:12:01;;;;;;;15.10;11.48;;;;;;;;;;6123917;23;20071;-96
2023/12/13 10:14:29;;;;;;;14.25;8.18;;;;;;;;;;6098926;23;20018;-96
2023/12/13 10:16:57;;;;;;;16.23;9.15;;;;;;;;;;6099804;23;20026;-96
2023/12/13 10:19:38;;;;;;;16.65;10.05;;;;;;;;;;6101887;23;20014;-96
2023/12/13 10:22:05;;;;;;;13.93;10.50;;;;;;;;;;6099367;23;20117;-96
2023/12/13 10:24:33;;;;;;;11.77;9.02;;;;;;;;;;6099879;23;20030;-96
2023/12/13 10:27:02;;;;;;;19.02;10.73;;;;;;;;;;6097826;23;20022;-95
2023/12/13 10:29:30;;;;;;;11.15;7.70;;;;;;;;;;6099147;23;20026;-96
2023/12/13 10:31:59;;;;;;;13.55;10.00;;;;;;;;;;6099351;23;20020;-94
2023/12/13 10:34:27;;;;;;;10.68;8.15;;;;;;;;;;6098209;23;20025;-96
2023/12/13 10:36:55;;;;;;;11.05;9.45;;;;;;;;;;6099083;23;20056;-96
2023/12/13 10:39:26;;;;;;;13.68;8.00;;;;;;;;;;6125070;23;20022;-96
2023/12/13 10:41:55;;;;;;;9.27;7.45;;;;;;;;;;6100167;23;20455;-94
2023/12/13 10:44:24;;;;;;;15.70;7.72;;;;;;;;;;6099044;23;20025;-96
2023/12/13 10:46:58;;;;;;;8.20;6.50;;;;;;;;;;6144591;23;20077;-94
2023/12/13 10:49:26;;;;;;;7.13;6.40;;;;;;;;;;6131167;23;20018;-94
2023/12/13 10:51:54;;;;;;;8.00;6.10;;;;;;;;;;6099120;23;20026;-94
2023/12/13 10:54:21;;;;;;;8.02;5.68;;;;;;;;;;6098710;23;20091;-94
2023/12/13 10:56:49;;;;;;;11.85;5.88;;;;;;;;;;6097599;23;20022;-95
2023/12/13 10:59:17;;;;;;;9.32;7.40;;;;;;;;;;6098347;23;20418;-95
2023/12/13 11:01:46;;;;;;;10.20;6.53;;;;;;;;;;6098508;23;20026;-94
2023/12/13 11:04:16;;;;;;;8.00;5.78;;;;;;;;;;6098643;23;20022;-95
2023/12/13 11:06:46;;;;;;;8.20;5.35;;;;;;;;;;6098096;23;20459;-92
2023/12/13 11:09:17;;;;;;;5.82;5.00;;;;;;;;;;6128825;23;20018;-94
2023/12/13 11:11:45;;;;;;;11.43;5.40;;;;;;;;;;6098648;23;20366;-94
2023/12/13 11:14:15;;;;;;;10.98;6.30;;;;;;;;;;6097562;23;20018;-93
2023/12/13 11:16:47;;;;;;;15.65;7.35;;;;;;;;;;6123143;23;20024;-95
2023/12/13 11:19:18;;;;;;;5.50;4.97;;;;;;;;;;6098295;23;20029;-95
2023/12/13 11:21:46;;;;;;;10.60;6.05;;;;;;;;;;6100475;23;20034;-94
2023/12/13 11:24:16;;;;;;;7.88;4.78;;;;;;;;;;6123867;23;20025;-95
2023/12/13 11:26:50;;;;;;;10.10;5.20;;;;;;;;;;6098233;23;20332;-94
2023/12/13 11:29:22;;;;;;;11.98;4.90;;;;;;;;;;6099949;23;20053;-95
2023/12/13 11:31:52;;;;;;;5.68;4.38;;;;;;;;;;6099704;23;20056;-96
2023/12/13 11:34:33;;;;;;;9.23;3.90;;;;;;;;;;6098813;23;20022;-95
2023/12/13 11:37:05;;;;;;;3.33;2.80;;;;;;;;;;6219035;23;20026;-94
2023/12/13 11:39:36;;;;;;;5.43;2.67;;;;;;;;;;6102381;23;20018;-95
2023/12/13 11:42:07;;;;;;;4.60;2.40;;;;;;;;;;6101175;23;20356;-96
2023/12/13 11:44:35;;;;;;;3.00;2.80;;;;;;;;;;6102841;23;20022;-95
2023/12/13 11:47:04;;;;;;;7.90;1.90;;;;;;;;;;6125970;23;20076;-96
2023/12/13 11:49:32;;;;;;;4.82;2.50;;;;;;;;;;6106631;23;20413;-94
2023/12/13 11:52:00;;;;;;;7.45;2.38;;;;;;;;;;6139650;23;20048;-96
2023/12/13 11:54:28;;;;;;;4.78;1.90;;;;;;;;;;6118154;23;20483;-95
2023/12/13 11:56:55;;;;;;;7.90;1.98;;;;;;;;;;6141593;23;20029;-96
2023/12/13 11:59:25;;;;;;;4.53;2.22;;;;;;;;;;6118245;23;20018;-96
2023/12/13 12:01:54;;;;;;;9.93;2.22;;;;;;;;;;6123765;23;20010;-93
2023/12/13 12:04:23;;;;;;;3.03;1.80;;;;;;;;;;6120956;23;20025;-95
2023/12/13 12:06:52;;;;;;;2.85;1.80;;;;;;;;;;6113890;23;20022;-96
2023/12/13 12:09:23;;;;;;;2.78;2.22;;;;;;;;;;6116926;23;20027;-94
2023/12/13 12:11:54;;;;;;;6.43;2.10;;;;;;;;;;6240251;23;20082;-96
2023/12/13 12:14:28;;;;;;;3.83;2.50;;;;;;;;;;6118584;23;20461;-96
2023/12/13 12:19:31;;;;;;;17.20;9.88;;;;;;;;;;6125390;23;20033;-85
2023/12/13 12:22:01;;;;;;;3.28;1.92;;;;;;;;;;6098342;23;20028;-85
2023/12/13 12:24:28;;;;;;;2.47;1.00;;;;;;;;;;6097927;23;20018;-85
2023/12/13 12:27:13;;;;;;;2.50;0.98;;;;;;;;;;6181802;22;20026;-84
2023/12/13 12:29:40;;;;;;;1.23;1.13;;;;;;;;;;6280233;22;20012;-84
2023/12/13 12:32:08;;;;;;;3.65;1.38;;;;;;;;;;6279646;22;20054;-85
2023/12/13 12:34:36;;;;;;;2.17;1.25;;;;;;;;;;6253586;22;20058;-84
2023/12/13 12:37:05;;;;;;;5.57;1.95;;;;;;;;;;6253306;22;20020;-85
2023/12/13 12:39:35;;;;;;;3.00;2.72;;;;;;;;;;6253604;22;20028;-85
2023/12/13 12:42:03;;;;;;;7.05;2.55;;;;;;;;;;6253826;22;20019;-85
2023/12/13 12:44:30;;;;;;;4.75;3.00;;;;;;;;;;6253062;22;20020;-85
2023/12/13 12:46:59;;;;;;;4.00;1.80;;;;;;;;;;6253386;22;20020;-85
2023/12/13 12:49:26;;;;;;;3.58;1.70;;;;;;;;;;6253039;22;20020;-85
2023/12/13 12:51:53;;;;;;;3.28;1.67;;;;;;;;;;6254600;22;20075;-85
2023/12/13 12:54:21;;;;;;;3.17;2.03;;;;;;;;;;6253913;22;20066;-85
2023/12/13 12:56:48;;;;;;;3.65;1.98;;;;;;;;;;6253503;22;20016;-85
2023/12/13 12:59:15;;;;;;;2.38;1.90;;;;;;;;;;6251875;22;20019;-85
2023/12/13 13:01:43;;;;;;;4.45;2.60;;;;;;;;;;6251472;22;20012;-85
2023/12/13 13:04:13;;;;;;;10.27;2.67;;;;;;;;;;6251436;22;20027;-85
2023/12/13 13:06:41;;;;;;;4.70;2.10;;;;;;;;;;6278418;22;20019;-85
2023/12/13 13:09:09;;;;;;;1.95;1.70;;;;;;;;;;6250863;22;20443;-84
2023/12/13 13:11:36;;;;;;;2.33;1.90;;;;;;;;;;6252994;22;20038;-85
2023/12/13 13:14:04;;;;;;;2.70;2.13;;;;;;;;;;6279513;22;20015;-85
2023/12/13 13:27:02;;;;;;;2.72;1.40;;;;;;;;;;6222754;23;20020;-84
2023/12/13 13:30:13;;;;;;;1.45;1.30;;;;;;;;;;6220561;23;20017;-84
2023/12/13 13:33:43;;;;;;;5.90;2.20;;;;;;;;;;6219790;23;20075;-85
2023/12/13 13:39:37;;;;;;;4.65;2.15;;;;;;;;;;6202526;23;20051;-84
2023/12/13 13:42:28;;;;;;;4.60;2.20;;;;;;;;;;6158728;23;20021;-84
2023/12/13 13:45:01;;;;;;;2.75;1.85;;;;;;;;;;6160255;23;20029;-85
2023/12/13 13:47:32;;;;;;;2.67;1.80;;;;;;;;;;6161453;23;20072;-84
2023/12/13 13:50:50;;;;;;;2.08;1.88;;;;;;;;;;6161706;23;20109;-84
2023/12/13 13:53:33;;;;;;;3.83;2.15;;;;;;;;;;6158408;23;20032;-84
2023/12/13 13:56:14;;;;;;;5.93;2.20;;;;;;;;;;6162136;23;20081;-84
2023/12/13 13:59:07;;;;;;;6.68;2.50;;;;;;;;;;6162681;23;20021;-84
2023/12/13 14:01:39;;;;;;;4.93;2.35;;;;;;;;;;6162389;23;20037;-84
2023/12/13 14:04:22;;;;;;;3.30;2.88;;;;;;;;;;6155249;23;20085;-84
2023/12/13 14:06:50;;;;;;;4.22;3.25;;;;;;;;;;6154805;23;20025;-83
2023/12/13 14:09:19;;;;;;;3.95;2.80;;;;;;;;;;6158700;23;20353;-84
2023/12/13 14:11:49;;;;;;;6.00;3.25;;;;;;;;;;6159663;23;20103;-84
2023/12/13 14:14:29;;;;;;;7.88;3.38;;;;;;;;;;6219081;23;20079;-84
2023/12/13 14:17:13;;;;;;;3.55;3.25;;;;;;;;;;6215377;23;20529;-84
2023/12/13 14:19:42;;;;;;;4.03;3.03;;;;;;;;;;6215926;23;20028;-84
2023/12/13 14:22:15;;;;;;;4.18;3.55;;;;;;;;;;6214778;23;20021;-83
2023/12/13 14:24:45;;;;;;;3.28;3.00;;;;;;;;;;6219970;23;20119;-84
2023/12/13 14:27:16;;;;;;;7.90;3.35;;;;;;;;;;6219705;23;20020;-84
2023/12/13 14:29:44;;;;;;;3.60;3.13;;;;;;;;;;6217436;23;20044;-84
2023/12/13 14:32:11;;;;;;;6.65;3.60;;;;;;;;;;6217348;23;20019;-83
2023/12/13 14:34:39;;;;;;;4.95;3.40;;;;;;;;;;6217661;23;20012;-84
2023/12/13 14:37:07;;;;;;;3.90;3.60;;;;;;;;;;6217266;23;20020;-84
2023/12/13 14:39:34;;;;;;;3.83;3.47;;;;;;;;;;6217729;23;20016;-84
2023/12/13 14:42:03;;;;;;;4.43;3.42;;;;;;;;;;6218362;23;20017;-84
2023/12/13 14:44:31;;;;;;;3.30;3.10;;;;;;;;;;6218921;23;20017;-84
2023/12/13 14:46:58;;;;;;;5.18;3.05;;;;;;;;;;6196668;23;20053;-85
2023/12/13 14:49:29;;;;;;;9.20;2.95;;;;;;;;;;6125416;23;20018;-84
2023/12/13 14:51:59;;;;;;;13.07;11.77;;;;;;;;;;6124048;23;20025;-84
2023/12/13 14:54:36;;;;;;;11.57;8.93;;;;;;;;;;5089112;27;20353;-87
2023/12/13 14:57:03;;;;;;;9.00;5.00;;;;;;;;;;5062222;28;20098;-85
2023/12/13 14:59:30;;;;;;;6.65;4.93;;;;;;;;;;5052447;28;20053;-87
2023/12/13 15:01:57;;;;;;;5.63;4.78;;;;;;;;;;5070066;28;20576;-85